Time;durP1;ratioP1;P1;durP2;ratioP2;P2;SDS_P1;SDS_P2;PMS_P1;PMS_P2;Temp;Humidity;BMP_temperature;BMP_pressure;BME280_temperature;BME280_humidity;BME280_pressure;Samples;Min_cycle;Max_cycle;Signal;HPM_P1;HPM_P2
2023/06/16 00:01:35;;;;;;;8.32;6.82;;;17.90;99.90;;;;;;5040462;28;20036;-60
2023/06/16 00:04:03;;;;;;;9.15;6.88;;;17.70;99.90;;;;;;5054395;28;20041;-60
2023/06/16 00:06:29;;;;;;;9.40;6.95;;;17.60;99.90;;;;;;5041160;28;20036;-60
2023/06/16 00:08:57;;;;;;;6.80;6.13;;;17.70;99.90;;;;;;5055142;28;20408;-60
2023/06/16 00:11:25;;;;;;;11.80;6.93;;;17.70;99.90;;;;;;5024980;28;20056;-60
2023/06/16 00:13:51;;;;;;;7.53;6.18;;;17.70;99.90;;;;;;5032388;28;20116;-62
2023/06/16 00:16:20;;;;;;;10.05;6.47;;;17.70;99.90;;;;;;5031177;28;20112;-60
2023/06/16 00:18:49;;;;;;;;;;;17.70;99.90;;;;;;5029999;28;20464;-60
2023/06/16 00:21:19;;;;;;;7.68;6.85;;;17.60;99.90;;;;;;5032083;28;20363;-60
2023/06/16 00:23:46;;;;;;;7.05;6.20;;;17.70;99.90;;;;;;5032075;28;20502;-60
2023/06/16 00:26:12;;;;;;;7.25;5.72;;;17.70;99.90;;;;;;5031358;28;20045;-60
2023/06/16 00:28:41;;;;;;;6.97;5.85;;;17.70;99.90;;;;;;5031871;28;20510;-61
2023/06/16 00:31:06;;;;;;;;;;;17.70;99.90;;;;;;5032387;28;20498;-60
2023/06/16 00:33:32;;;;;;;8.63;5.55;;;17.70;99.90;;;;;;5032333;28;19917;-61
2023/06/16 00:35:57;;;;;;;6.50;5.22;;;17.70;99.90;;;;;;5032105;28;20519;-60
2023/06/16 00:38:23;;;;;;;6.03;4.78;;;17.70;99.90;;;;;;5030730;28;20037;-60
2023/06/16 00:40:49;;;;;;;8.05;5.65;;;17.80;99.90;;;;;;5032229;28;20503;-60
2023/06/16 00:43:14;;;;;;;5.90;5.30;;;17.80;99.90;;;;;;5032012;28;20033;-60
2023/06/16 00:45:40;;;;;;;7.53;5.53;;;17.80;99.90;;;;;;5032017;28;20038;-60
2023/06/16 00:48:06;;;;;;;10.13;5.80;;;17.80;99.90;;;;;;5029700;28;20033;-60
2023/06/16 00:50:33;;;;;;;6.72;6.07;;;17.80;99.90;;;;;;5033500;28;20037;-60
2023/06/16 00:52:59;;;;;;;5.68;4.97;;;17.70;99.90;;;;;;5035459;28;20041;-60
2023/06/16 00:55:25;;;;;;;6.50;5.65;;;17.60;99.90;;;;;;5035662;28;20048;-60
2023/06/16 00:57:52;;;;;;;6.97;5.22;;;17.50;99.90;;;;;;5034818;28;20120;-60
2023/06/16 01:00:19;;;;;;;7.25;5.80;;;17.50;99.90;;;;;;5038221;28;20039;-60
2023/06/16 01:02:46;;;;;;;6.07;5.15;;;17.40;99.90;;;;;;5033380;28;20121;-60
2023/06/16 01:05:16;;;;;;;6.78;5.80;;;17.50;99.90;;;;;;5035193;28;20499;-60
2023/06/16 01:08:12;;;;;;;11.48;6.60;;;17.40;99.90;;;;;;5052438;28;20087;-61
2023/06/16 01:10:47;;;;;;;8.13;6.35;;;17.40;99.90;;;;;;5018592;28;20061;-60
2023/06/16 01:13:46;;;;;;;10.20;6.60;;;17.50;99.90;;;;;;5031568;28;20083;-60
2023/06/16 01:16:14;;;;;;;8.82;6.32;;;17.30;99.90;;;;;;4949068;28;20055;-60
2023/06/16 01:18:43;;;;;;;9.90;6.47;;;17.30;99.90;;;;;;4973800;28;20051;-60
2023/06/16 01:21:52;;;;;;;7.63;6.85;;;17.20;99.90;;;;;;4973669;28;20146;-61
2023/06/16 01:24:23;;;;;;;8.75;6.95;;;17.30;99.90;;;;;;4888952;29;20041;-60
2023/06/16 01:26:53;;;;;;;7.15;6.45;;;17.20;99.90;;;;;;4907737;29;20067;-60
2023/06/16 01:29:23;;;;;;;8.07;7.07;;;17.10;99.90;;;;;;4897294;29;20048;-60
2023/06/16 01:31:52;;;;;;;7.50;6.80;;;17.10;99.90;;;;;;4897472;29;20077;-60
2023/06/16 01:34:19;;;;;;;11.32;7.82;;;17.10;99.90;;;;;;4893492;29;20592;-61
2023/06/16 01:36:45;;;;;;;8.30;7.50;;;17.00;99.90;;;;;;4889148;29;20088;-61
2023/06/16 01:39:13;;;;;;;8.68;7.80;;;17.10;99.90;;;;;;4897149;29;20040;-60
2023/06/16 01:41:40;;;;;;;8.80;7.90;;;16.90;99.90;;;;;;4881706;29;20056;-60
2023/06/16 01:44:06;;;;;;;8.73;7.82;;;17.00;99.90;;;;;;4912928;29;20693;-60
2023/06/16 01:46:33;;;;;;;10.90;8.50;;;17.00;99.90;;;;;;4884058;29;20052;-60
2023/06/16 01:48:58;;;;;;;8.63;7.80;;;17.00;99.90;;;;;;4902476;29;20053;-61
2023/06/16 01:51:24;;;;;;;8.85;7.95;;;16.90;99.90;;;;;;4896864;29;20489;-60
2023/06/16 01:53:52;;;;;;;9.10;7.65;;;16.80;99.90;;;;;;4970036;28;20529;-60
2023/06/16 01:56:17;;;;;;;9.57;8.55;;;16.80;99.90;;;;;;5045307;28;20082;-60
2023/06/16 01:58:43;;;;;;;10.95;8.70;;;16.80;99.90;;;;;;5046707;28;20048;-60
2023/06/16 02:01:17;;;;;;;9.75;8.43;;;16.70;99.90;;;;;;5053768;28;20098;-61
2023/06/16 02:03:52;;;;;;;8.70;7.90;;;16.70;99.90;;;;;;5054188;28;20109;-60
2023/06/16 02:06:23;;;;;;;8.52;7.63;;;16.70;99.90;;;;;;5052375;28;20044;-60
2023/06/16 02:08:53;;;;;;;9.90;9.00;;;16.70;99.90;;;;;;5037375;28;20068;-60
2023/06/16 02:11:19;;;;;;;9.38;7.43;;;16.60;99.90;;;;;;5062395;28;20041;-61
2023/06/16 02:13:45;;;;;;;9.45;8.55;;;16.80;99.90;;;;;;5074007;28;20044;-60
2023/06/16 02:16:12;;;;;;;10.60;8.20;;;16.80;99.90;;;;;;5073953;28;20044;-60
2023/06/16 02:18:39;;;;;;;9.77;8.80;;;16.80;99.90;;;;;;5064050;28;20534;-60
2023/06/16 02:21:04;;;;;;;10.85;8.32;;;16.80;99.90;;;;;;5046953;28;20169;-61
2023/06/16 02:23:30;;;;;;;10.40;8.70;;;16.70;99.90;;;;;;5089259;28;20151;-60
2023/06/16 02:25:56;;;;;;;9.18;8.25;;;16.60;99.90;;;;;;5073846;28;20379;-60
2023/06/16 02:28:21;;;;;;;10.25;9.05;;;16.60;99.90;;;;;;5067349;28;20047;-60
2023/06/16 02:30:47;;;;;;;10.95;8.95;;;16.50;99.90;;;;;;5063806;28;20029;-61
2023/06/16 02:33:13;;;;;;;11.13;9.98;;;16.50;99.90;;;;;;5073722;28;20433;-60
2023/06/16 02:35:39;;;;;;;9.60;8.65;;;16.50;99.90;;;;;;5055419;28;20051;-60
2023/06/16 02:38:07;;;;;;;10.02;9.02;;;16.50;99.90;;;;;;5073809;28;20115;-60
2023/06/16 02:40:33;;;;;;;10.40;9.37;;;16.50;99.90;;;;;;5040013;28;20087;-60
2023/06/16 02:42:58;;;;;;;10.82;8.60;;;16.40;99.90;;;;;;5073063;28;20467;-60
2023/06/16 02:45:24;;;;;;;11.75;9.00;;;16.40;99.90;;;;;;5073422;28;20128;-60
2023/06/16 02:47:50;;;;;;;10.20;9.13;;;16.30;99.90;;;;;;5072868;28;20394;-60
2023/06/16 02:50:16;;;;;;;13.68;10.70;;;16.20;99.90;;;;;;5048480;28;20692;-60
2023/06/16 02:52:42;;;;;;;11.18;10.07;;;16.20;99.90;;;;;;5054432;28;20037;-60
2023/06/16 02:55:13;;;;;;;9.10;8.20;;;16.20;99.90;;;;;;5042093;28;20033;-60
2023/06/16 02:57:38;;;;;;;10.98;9.98;;;16.30;99.90;;;;;;5072865;28;20109;-61
2023/06/16 03:00:09;;;;;;;12.48;10.40;;;16.30;99.90;;;;;;5073277;28;20463;-60
2023/06/16 03:02:35;;;;;;;12.50;10.98;;;16.30;99.90;;;;;;5072988;28;20382;-60
2023/06/16 03:05:04;;;;;;;14.38;11.32;;;16.40;99.90;;;;;;5061933;28;20391;-60
2023/06/16 03:07:34;;;;;;;14.98;11.20;;;16.40;99.90;;;;;;5067706;28;20044;-60
2023/06/16 03:10:01;;;;;;;13.38;12.07;;;16.50;99.90;;;;;;5072896;28;20039;-60
2023/06/16 03:12:27;;;;;;;12.60;11.40;;;16.50;99.90;;;;;;5072458;28;20082;-60
2023/06/16 03:14:52;;;;;;;12.57;11.27;;;16.60;99.90;;;;;;5065082;28;20076;-60
2023/06/16 03:17:20;;;;;;;12.88;11.57;;;16.60;99.90;;;;;;5062515;28;20033;-61
2023/06/16 03:19:47;;;;;;;13.30;12.00;;;16.50;99.90;;;;;;5072978;28;20086;-60
2023/06/16 03:22:13;;;;;;;13.55;12.07;;;16.60;99.90;;;;;;5054548;28;20119;-60
2023/06/16 03:24:41;;;;;;;16.83;13.20;;;16.60;99.90;;;;;;5053277;28;20497;-60
2023/06/16 03:27:08;;;;;;;15.05;13.55;;;16.60;99.90;;;;;;5055113;28;20107;-60
2023/06/16 03:29:34;;;;;;;15.32;12.32;;;16.50;99.90;;;;;;5047112;28;20056;-60
2023/06/16 03:32:00;;;;;;;15.02;13.48;;;16.40;99.90;;;;;;5072688;28;20066;-60
2023/06/16 03:34:26;;;;;;;13.52;11.93;;;16.20;99.90;;;;;;5073039;28;20028;-60
2023/06/16 03:36:52;;;;;;;16.98;13.90;;;16.20;99.90;;;;;;5072678;28;20075;-60
2023/06/16 03:39:17;;;;;;;16.63;12.95;;;16.10;99.90;;;;;;5067915;28;20414;-60
2023/06/16 03:41:44;;;;;;;14.65;12.95;;;16.10;99.90;;;;;;5064480;28;20048;-60
2023/06/16 03:44:10;;;;;;;15.85;14.15;;;16.10;99.90;;;;;;5072404;28;20115;-61
2023/06/16 03:46:35;;;;;;;16.15;13.75;;;16.10;99.90;;;;;;5072585;28;20068;-60
2023/06/16 03:49:01;;;;;;;14.68;12.65;;;16.00;99.90;;;;;;5068953;28;20119;-60
2023/06/16 03:51:27;;;;;;;15.38;12.82;;;16.00;99.90;;;;;;5060001;28;20444;-60
2023/06/16 03:53:52;;;;;;;19.58;14.48;;;16.10;99.90;;;;;;5071986;28;20048;-60
2023/06/16 03:56:19;;;;;;;14.82;13.43;;;16.00;99.90;;;;;;5072704;28;20150;-60
2023/06/16 03:58:44;;;;;;;21.50;15.85;;;16.10;99.90;;;;;;5072646;28;20032;-60
2023/06/16 04:01:10;;;;;;;16.10;13.32;;;16.10;99.90;;;;;;5071061;28;20036;-60
2023/06/16 04:03:36;;;;;;;15.40;13.63;;;16.10;99.90;;;;;;5062797;28;20057;-60
2023/06/16 04:06:02;;;;;;;14.75;13.15;;;16.10;99.90;;;;;;5072522;28;20048;-60
2023/06/16 04:08:28;;;;;;;15.98;14.23;;;16.10;99.90;;;;;;5053658;28;20491;-60
2023/06/16 04:10:57;;;;;;;16.42;14.85;;;16.10;99.90;;;;;;5063898;28;20092;-60
2023/06/16 04:13:26;;;;;;;15.95;14.35;;;16.10;99.90;;;;;;5057479;28;20124;-60
2023/06/16 04:15:51;;;;;;;;;;;16.20;99.90;;;;;;5071014;28;20037;-61
2023/06/16 04:18:17;;;;;;;16.08;14.40;;;16.30;99.90;;;;;;5067033;28;20469;-61
2023/06/16 04:20:42;;;;;;;16.92;13.70;;;16.50;99.90;;;;;;5072176;28;20036;-60
2023/06/16 04:23:09;;;;;;;16.73;14.55;;;16.50;99.90;;;;;;5073600;28;20048;-60
2023/06/16 04:25:37;;;;;;;16.20;14.52;;;16.50;99.90;;;;;;5041369;28;20052;-60
2023/06/16 04:28:02;;;;;;;18.02;16.17;;;16.60;99.90;;;;;;5058699;28;20075;-57
2023/06/16 04:30:30;;;;;;;17.73;15.05;;;16.60;99.90;;;;;;5073865;28;20500;-57
2023/06/16 04:32:59;;;;;;;19.65;15.95;;;16.60;99.90;;;;;;5074903;28;20040;-57
2023/06/16 04:35:31;;;;;;;20.10;18.00;;;16.70;99.90;;;;;;5074491;28;20071;-57
2023/06/16 04:37:57;;;;;;;19.10;15.00;;;16.80;99.90;;;;;;5046504;28;20052;-57
2023/06/16 04:40:24;;;;;;;23.20;18.50;;;16.80;99.90;;;;;;5070701;28;20036;-57
2023/06/16 04:42:50;;;;;;;22.55;19.85;;;16.90;99.90;;;;;;5075026;28;20359;-57
2023/06/16 04:45:16;;;;;;;22.33;19.50;;;17.00;99.90;;;;;;5074553;28;20090;-57
2023/06/16 04:47:44;;;;;;;23.60;20.58;;;17.10;99.90;;;;;;5049125;28;20874;-57
2023/06/16 04:50:11;;;;;;;20.13;18.10;;;17.30;99.90;;;;;;5056042;28;20119;-57
2023/06/16 04:52:37;;;;;;;23.83;21.48;;;17.50;99.90;;;;;;5055955;28;20037;-58
2023/06/16 04:55:04;;;;;;;23.20;19.17;;;17.50;99.90;;;;;;5066766;28;20032;-57
2023/06/16 04:57:31;;;;;;;22.70;20.30;;;17.60;99.90;;;;;;5049313;28;20743;-57
2023/06/16 04:59:58;;;;;;;20.13;18.10;;;17.60;99.90;;;;;;5074683;28;20083;-57
2023/06/16 05:02:23;;;;;;;24.05;18.65;;;17.70;99.90;;;;;;5074216;28;20078;-59
2023/06/16 05:04:50;;;;;;;19.63;17.60;;;17.80;99.90;;;;;;5073956;28;20158;-59
2023/06/16 05:07:15;;;;;;;24.30;20.83;;;18.00;99.90;;;;;;5056639;28;20045;-59
2023/06/16 05:09:41;;;;;;;22.58;20.15;;;18.10;99.90;;;;;;5051978;28;20533;-59
2023/06/16 05:12:07;;;;;;;22.02;19.70;;;18.10;99.90;;;;;;5074050;28;20060;-59
2023/06/16 05:14:33;;;;;;;22.15;18.52;;;18.20;99.90;;;;;;5074063;28;20044;-59
2023/06/16 05:17:00;;;;;;;17.95;15.50;;;18.40;99.90;;;;;;5068138;28;20116;-59
2023/06/16 05:19:26;;;;;;;19.85;17.85;;;18.50;99.90;;;;;;5065841;28;20098;-59
2023/06/16 05:21:52;;;;;;;25.08;16.25;;;18.60;99.90;;;;;;5074127;28;20037;-60
2023/06/16 05:24:17;;;;;;;20.27;17.15;;;18.70;99.90;;;;;;5073686;28;20044;-59
2023/06/16 05:26:43;;;;;;;20.13;18.15;;;18.80;99.90;;;;;;5052166;28;20047;-60
2023/06/16 05:29:08;;;;;;;23.38;18.45;;;18.80;99.90;;;;;;5061503;28;20032;-60
2023/06/16 05:31:35;;;;;;;20.45;17.50;;;19.00;99.90;;;;;;5073937;28;20402;-59
2023/06/16 05:34:04;;;;;;;23.55;17.25;;;19.00;99.90;;;;;;5073322;28;20032;-59
2023/06/16 05:36:31;;;;;;;17.85;14.13;;;19.10;99.90;;;;;;5073832;28;20037;-59
2023/06/16 05:38:57;;;;;;;17.23;15.52;;;19.30;99.90;;;;;;5060302;28;20083;-60
2023/06/16 05:41:24;;;;;;;21.30;14.68;;;19.40;99.90;;;;;;5073599;28;20068;-60
2023/06/16 05:43:57;;;;;;;18.95;15.15;;;19.40;99.90;;;;;;5055437;28;20081;-60
2023/06/16 05:46:23;;;;;;;15.60;14.00;;;19.50;99.90;;;;;;5073960;28;20041;-59
2023/06/16 05:48:49;;;;;;;14.13;12.27;;;19.50;99.90;;;;;;5080917;28;20041;-60
2023/06/16 05:51:15;;;;;;;12.57;11.32;;;19.60;99.90;;;;;;5044547;28;20367;-57
2023/06/16 05:53:41;;;;;;;9.93;8.95;;;19.70;99.90;;;;;;5063507;28;20103;-57
2023/06/16 05:56:07;;;;;;;9.98;9.05;;;19.80;99.90;;;;;;5031260;28;20033;-57
2023/06/16 05:58:36;;;;;;;13.00;10.40;;;19.80;99.90;;;;;;5067342;28;20049;-58
2023/06/16 06:01:07;;;;;;;9.18;7.93;;;19.80;99.90;;;;;;5051186;28;20048;-57
2023/06/16 06:03:33;;;;;;;6.13;5.35;;;19.90;99.90;;;;;;5035202;28;20549;-58
2023/06/16 06:06:01;;;;;;;5.32;3.40;;;20.00;99.90;;;;;;5052641;28;20033;-57
2023/06/16 06:08:28;;;;;;;11.65;10.00;;;20.10;99.90;;;;;;5072686;28;20391;-57
2023/06/16 06:10:54;;;;;;;10.88;9.00;;;20.20;99.90;;;;;;5043380;28;20144;-57
2023/06/16 06:13:21;;;;;;;17.15;10.35;;;20.40;99.90;;;;;;5086381;28;20036;-57
2023/06/16 06:15:47;;;;;;;14.75;11.05;;;20.40;99.90;;;;;;5088454;28;20041;-57
2023/06/16 06:18:12;;;;;;;11.63;10.45;;;20.50;99.90;;;;;;5073056;28;20128;-57
2023/06/16 06:20:39;;;;;;;10.50;8.68;;;20.40;99.90;;;;;;5079570;28;20128;-58
2023/06/16 06:23:05;;;;;;;9.43;8.15;;;20.40;99.90;;;;;;5066015;28;20112;-58
2023/06/16 06:25:31;;;;;;;9.32;8.40;;;20.70;99.90;;;;;;5054901;28;20522;-58
2023/06/16 06:27:57;;;;;;;8.32;7.45;;;20.80;99.90;;;;;;5072896;28;20029;-58
2023/06/16 06:30:24;;;;;;;10.65;8.00;;;21.00;99.90;;;;;;5053284;28;20383;-58
2023/06/16 06:32:50;;;;;;;8.35;7.00;;;21.00;99.90;;;;;;5052845;28;20049;-58
2023/06/16 06:35:16;;;;;;;11.98;8.15;;;21.20;99.90;;;;;;5050944;28;20040;-58
2023/06/16 06:37:42;;;;;;;11.73;9.75;;;21.40;99.90;;;;;;5072850;28;20037;-58
2023/06/16 06:40:08;;;;;;;12.18;7.97;;;21.40;99.90;;;;;;5072382;28;20090;-58
2023/06/16 06:42:34;;;;;;;9.05;7.30;;;21.40;99.90;;;;;;5061331;28;20041;-58
2023/06/16 06:44:59;;;;;;;12.38;8.70;;;21.60;99.90;;;;;;5065100;28;20395;-57
2023/06/16 06:47:25;;;;;;;9.48;8.23;;;21.80;99.90;;;;;;5061480;28;20075;-58
2023/06/16 06:49:51;;;;;;;10.10;9.10;;;21.60;99.90;;;;;;5054850;28;20144;-58
2023/06/16 06:52:17;;;;;;;9.70;8.57;;;21.50;99.90;;;;;;5070539;28;20032;-58
2023/06/16 06:54:42;;;;;;;7.60;6.85;;;21.40;99.90;;;;;;5072078;28;20036;-58
2023/06/16 06:57:08;;;;;;;7.78;6.97;;;21.30;99.90;;;;;;5068649;28;20475;-57
2023/06/16 06:59:34;;;;;;;8.82;7.90;;;21.50;99.90;;;;;;5041766;28;20117;-57
2023/06/16 07:02:00;;;;;;;13.65;7.97;;;21.80;99.90;;;;;;5071992;28;20071;-58
2023/06/16 07:04:26;;;;;;;7.65;6.05;;;22.00;99.90;;;;;;5071966;28;20076;-58
2023/06/16 07:06:51;;;;;;;8.95;6.57;;;22.20;99.90;;;;;;5072116;28;20502;-58
2023/06/16 07:09:17;;;;;;;7.47;5.97;;;22.20;99.90;;;;;;5055803;28;20109;-58
2023/06/16 07:11:43;;;;;;;7.80;7.00;;;22.60;99.90;;;;;;5070464;28;20092;-57
2023/06/16 07:14:08;;;;;;;10.52;7.90;;;22.50;99.90;;;;;;5072367;28;20044;-58
2023/06/16 07:16:34;;;;;;;8.40;7.60;;;22.30;99.90;;;;;;5071892;28;20036;-60
2023/06/16 07:19:01;;;;;;;5.65;5.07;;;22.40;99.90;;;;;;5062453;28;20082;-58
2023/06/16 07:21:27;;;;;;;5.32;4.28;;;22.40;99.90;;;;;;5065643;28;20045;-58
2023/06/16 07:23:53;;;;;;;6.72;5.57;;;22.80;99.90;;;;;;5071805;28;20076;-57
2023/06/16 07:26:19;;;;;;;8.80;6.40;;;22.90;99.90;;;;;;5053155;28;20514;-58
2023/06/16 07:28:45;;;;;;;8.45;6.95;;;22.70;99.90;;;;;;5087381;28;20048;-58
2023/06/16 07:31:10;;;;;;;7.18;5.32;;;22.70;99.90;;;;;;5052161;28;20474;-57
2023/06/16 07:33:36;;;;;;;10.05;6.07;;;23.10;99.90;;;;;;5068664;28;20147;-59
2023/06/16 07:36:02;;;;;;;5.47;4.78;;;23.00;99.90;;;;;;5071604;28;20044;-58
2023/06/16 07:38:28;;;;;;;9.45;5.60;;;23.50;99.90;;;;;;5071354;28;20040;-58
2023/06/16 07:40:54;;;;;;;8.60;5.82;;;23.80;99.90;;;;;;5063251;28;20044;-58
2023/06/16 07:43:21;;;;;;;4.78;4.15;;;24.10;99.90;;;;;;5058089;28;20127;-58
2023/06/16 07:45:47;;;;;;;5.88;4.32;;;24.10;99.90;;;;;;5070720;28;20066;-58
2023/06/16 07:48:13;;;;;;;6.28;4.70;;;24.40;99.90;;;;;;5036653;28;20060;-58
2023/06/16 07:50:40;;;;;;;8.45;4.68;;;24.70;99.90;;;;;;5048572;28;20051;-58
2023/06/16 07:53:06;;;;;;;6.15;4.15;;;24.70;99.90;;;;;;5064021;28;20044;-59
2023/06/16 07:55:32;;;;;;;8.73;5.45;;;24.60;99.90;;;;;;5071472;28;20041;-58
2023/06/16 07:57:57;;;;;;;6.95;5.22;;;24.30;99.90;;;;;;5073056;28;20114;-57
2023/06/16 08:00:23;;;;;;;6.50;4.15;;;24.60;99.90;;;;;;5057360;28;20110;-58
2023/06/16 08:02:50;;;;;;;7.40;3.72;;;24.90;99.90;;;;;;5041692;28;20036;-58
2023/06/16 08:05:20;;;;;;;4.43;3.47;;;25.10;99.90;;;;;;5045315;28;20049;-58
2023/06/16 08:07:46;;;;;;;9.13;4.72;;;24.90;99.90;;;;;;5073421;28;20394;-58
2023/06/16 08:10:13;;;;;;;2.78;2.40;;;25.00;99.90;;;;;;5075230;28;20036;-59
2023/06/16 08:12:39;;;;;;;6.32;2.63;;;25.10;99.90;;;;;;5070938;28;20120;-58
2023/06/16 08:15:05;;;;;;;3.97;2.58;;;25.40;99.20;;;;;;5064224;28;20120;-58
2023/06/16 08:17:31;;;;;;;2.80;2.50;;;25.40;98.40;;;;;;5075068;28;20482;-58
2023/06/16 08:19:56;;;;;;;5.53;2.70;;;25.80;97.90;;;;;;5075038;28;20047;-58
2023/06/16 08:22:22;;;;;;;3.75;2.35;;;26.00;97.10;;;;;;5057146;28;20155;-58
2023/06/16 08:24:48;;;;;;;2.55;2.33;;;25.90;96.60;;;;;;5057678;28;20032;-60
2023/06/16 08:27:14;;;;;;;2.40;2.20;;;25.70;95.60;;;;;;5074826;28;20044;-58
2023/06/16 08:29:41;;;;;;;5.18;2.22;;;25.80;96.20;;;;;;5075078;28;20032;-59
2023/06/16 08:32:07;;;;;;;3.00;2.03;;;25.90;95.90;;;;;;5074748;28;20034;-58
2023/06/16 08:34:34;;;;;;;3.97;2.10;;;26.20;95.60;;;;;;5065993;28;20052;-58
2023/06/16 08:37:01;;;;;;;4.95;2.78;;;26.30;94.90;;;;;;5056726;28;20047;-59
2023/06/16 08:39:27;;;;;;;2.45;2.20;;;26.50;94.60;;;;;;5075167;28;20397;-59
2023/06/16 08:41:53;;;;;;;3.47;2.70;;;26.40;93.50;;;;;;5074453;28;20044;-58
2023/06/16 08:44:21;;;;;;;3.30;2.92;;;26.30;93.20;;;;;;5073624;28;20093;-59
2023/06/16 08:46:48;;;;;;;4.30;3.07;;;26.30;92.80;;;;;;5053731;28;20040;-59
2023/06/16 08:49:15;;;;;;;3.78;3.03;;;26.60;92.90;;;;;;5070394;28;20226;-60
2023/06/16 08:51:48;;;;;;;4.65;2.22;;;26.90;92.10;;;;;;5074510;28;20119;-60
2023/06/16 08:54:14;;;;;;;6.00;2.78;;;26.70;92.60;;;;;;5074239;28;20041;-59
2023/06/16 08:56:43;;;;;;;15.68;3.95;;;26.20;91.80;;;;;;5065920;28;20074;-60
2023/06/16 08:59:10;;;;;;;5.22;3.35;;;26.20;92.30;;;;;;5066010;28;20505;-60
2023/06/16 09:01:39;;;;;;;3.58;2.55;;;25.40;92.00;;;;;;5074684;28;20107;-59
2023/06/16 09:04:09;;;;;;;3.88;2.67;;;25.40;92.50;;;;;;5057027;28;20049;-59
2023/06/16 09:06:35;;;;;;;4.70;2.25;;;25.30;92.40;;;;;;5040276;28;20111;-59
2023/06/16 09:09:03;;;;;;;3.45;2.47;;;25.20;92.50;;;;;;5066413;28;20044;-60
2023/06/16 09:11:30;;;;;;;4.63;2.40;;;25.10;93.00;;;;;;5073975;28;20056;-59
2023/06/16 09:13:56;;;;;;;3.75;2.33;;;24.90;93.30;;;;;;5074460;28;20143;-59
2023/06/16 09:16:23;;;;;;;3.28;1.98;;;25.00;94.10;;;;;;5054235;28;20505;-59
2023/06/16 09:18:49;;;;;;;3.35;2.55;;;25.10;94.60;;;;;;5059277;28;20162;-59
2023/06/16 09:21:23;;;;;;;3.90;2.35;;;25.80;94.50;;;;;;5074305;28;20139;-59
2023/06/16 09:23:56;;;;;;;6.22;2.08;;;26.00;94.40;;;;;;5074113;28;20049;-59
2023/06/16 09:26:23;;;;;;;5.13;2.50;;;25.60;93.90;;;;;;5074140;28;20475;-59
2023/06/16 09:28:49;;;;;;;4.07;2.10;;;25.90;94.30;;;;;;5057812;28;20037;-59
2023/06/16 09:31:15;;;;;;;3.08;1.95;;;26.00;94.00;;;;;;5065326;28;20119;-59
2023/06/16 09:33:41;;;;;;;2.92;1.90;;;26.20;93.60;;;;;;5073918;28;20398;-59
2023/06/16 09:36:08;;;;;;;5.28;2.33;;;26.10;93.90;;;;;;5074032;28;20040;-59
2023/06/16 09:38:36;;;;;;;4.90;2.13;;;25.70;93.50;;;;;;5049562;28;20061;-59
2023/06/16 09:41:28;;;;;;;5.80;2.30;;;26.50;93.90;;;;;;5064665;28;20041;-60
2023/06/16 09:43:59;;;;;;;2.92;2.10;;;26.20;92.80;;;;;;5052044;28;20052;-59
2023/06/16 09:46:25;;;;;;;7.18;2.70;;;25.60;92.70;;;;;;5073618;28;20083;-60
2023/06/16 09:48:51;;;;;;;4.97;2.47;;;25.50;93.50;;;;;;5051563;28;20119;-60
2023/06/16 09:51:21;;;;;;;5.65;2.75;;;25.90;94.20;;;;;;5061045;28;20104;-60
2023/06/16 09:53:48;;;;;;;4.65;2.20;;;26.30;93.90;;;;;;5073339;28;20119;-59
2023/06/16 09:56:15;;;;;;;2.75;1.90;;;26.90;93.60;;;;;;5073324;28;20044;-60
2023/06/16 09:58:42;;;;;;;2.90;1.90;;;26.80;92.70;;;;;;5065339;28;20040;-60
2023/06/16 10:01:10;;;;;;;14.45;2.72;;;27.00;93.20;;;;;;5058755;28;20036;-61
2023/06/16 10:03:39;;;;;;;4.50;2.08;;;27.60;92.80;;;;;;5073277;28;20040;-60
2023/06/16 10:06:19;;;;;;;3.67;2.05;;;27.50;92.00;;;;;;5073044;28;20090;-60
2023/06/16 10:08:47;;;;;;;3.60;2.15;;;27.40;92.80;;;;;;5073109;28;20041;-60
2023/06/16 10:11:16;;;;;;;4.05;2.42;;;27.30;92.80;;;;;;5059516;28;20049;-59
2023/06/16 10:14:04;;;;;;;2.78;2.20;;;26.80;91.30;;;;;;5059945;28;20050;-60
2023/06/16 10:16:31;;;;;;;6.28;2.17;;;26.70;92.00;;;;;;5072444;28;20406;-59
2023/06/16 10:19:01;;;;;;;5.57;2.03;;;26.40;91.80;;;;;;5072897;28;20505;-61
2023/06/16 10:21:26;;;;;;;3.08;1.70;;;26.40;91.60;;;;;;5063638;28;20086;-60
2023/06/16 10:23:53;;;;;;;4.97;2.05;;;26.90;91.50;;;;;;5067301;28;20041;-59
2023/06/16 10:26:19;;;;;;;2.17;1.73;;;26.90;90.90;;;;;;5072879;28;20033;-59
2023/06/16 10:28:46;;;;;;;3.78;2.25;;;26.80;90.70;;;;;;5041286;28;20052;-60
2023/06/16 10:31:14;;;;;;;2.60;1.67;;;26.90;90.50;;;;;;5059827;28;20037;-59
2023/06/16 10:33:57;;;;;;;3.20;2.00;;;26.40;90.30;;;;;;5053254;28;20036;-59
2023/06/16 10:36:38;;;;;;;3.35;1.80;;;26.80;90.80;;;;;;5045720;28;20036;-60
2023/06/16 10:39:12;;;;;;;2.90;1.80;;;27.00;91.10;;;;;;5072328;28;20459;-59
2023/06/16 10:41:59;;;;;;;2.95;2.05;;;27.30;90.80;;;;;;5054466;28;20056;-62
2023/06/16 10:44:29;;;;;;;4.30;1.83;;;27.40;90.80;;;;;;5058497;28;20048;-60
2023/06/16 10:47:10;;;;;;;4.30;1.67;;;27.60;90.50;;;;;;5072512;28;20032;-60
2023/06/16 10:49:55;;;;;;;3.22;1.65;;;27.80;90.30;;;;;;5069245;28;20827;-61
2023/06/16 10:52:45;;;;;;;3.42;2.30;;;28.10;90.60;;;;;;5046833;28;20386;-60
2023/06/16 10:55:37;;;;;;;;;;;28.20;90.30;;;;;;5057580;28;20514;-60
2023/06/16 10:58:15;;;;;;;1.88;1.67;;;28.20;90.60;;;;;;5066766;28;19921;-60
2023/06/16 11:00:57;;;;;;;3.97;2.08;;;28.20;90.30;;;;;;5026251;28;20048;-60
2023/06/16 11:03:28;;;;;;;4.28;1.67;;;27.40;88.50;;;;;;5068155;28;20628;-59
2023/06/16 11:05:59;;;;;;;3.10;1.95;;;27.10;88.40;;;;;;5040065;28;20147;-59
2023/06/16 11:08:25;;;;;;;4.18;1.63;;;27.20;89.60;;;;;;5071990;28;20036;-60
2023/06/16 11:11:01;;;;;;;2.05;1.85;;;27.40;90.00;;;;;;5071946;28;20052;-60
2023/06/16 11:13:30;;;;;;;3.88;2.30;;;27.20;89.50;;;;;;5037613;28;20382;-60
2023/06/16 11:15:57;;;;;;;6.20;1.67;;;27.20;89.90;;;;;;5056593;28;20045;-60
2023/06/16 11:18:27;;;;;;;4.70;1.70;;;27.00;88.50;;;;;;5069654;28;20036;-60
2023/06/16 11:20:56;;;;;;;2.78;1.75;;;26.80;87.10;;;;;;5071982;28;20044;-59
2023/06/16 11:23:22;;;;;;;5.20;2.17;;;27.00;89.90;;;;;;5071778;28;20047;-60
2023/06/16 11:25:51;;;;;;;5.53;2.20;;;27.10;86.90;;;;;;5073651;28;20380;-60
2023/06/16 11:28:21;;;;;;;3.00;2.05;;;26.80;87.30;;;;;;5057115;28;20041;-59
2023/06/16 11:30:47;;;;;;;2.60;1.65;;;26.90;88.10;;;;;;5054068;28;20050;-59
2023/06/16 11:33:16;;;;;;;6.35;2.03;;;26.90;88.40;;;;;;5071513;28;20036;-59
2023/06/16 11:35:42;;;;;;;5.32;2.28;;;27.00;89.50;;;;;;5065629;28;20037;-60
2023/06/16 11:38:08;;;;;;;4.65;1.92;;;27.00;89.40;;;;;;5062837;28;20042;-60
2023/06/16 11:40:35;;;;;;;5.50;2.03;;;26.80;90.00;;;;;;5071972;28;20112;-60
2023/06/16 11:43:05;;;;;;;5.45;2.22;;;27.10;90.30;;;;;;5070383;28;20056;-59
2023/06/16 11:45:38;;;;;;;4.07;1.85;;;27.20;89.30;;;;;;5071643;28;20131;-60
2023/06/16 11:48:07;;;;;;;4.30;1.83;;;26.90;89.60;;;;;;5032765;28;20053;-59
2023/06/16 11:50:33;;;;;;;2.35;1.85;;;26.70;90.10;;;;;;5067802;28;20115;-60
2023/06/16 11:53:00;;;;;;;4.05;2.30;;;26.50;89.50;;;;;;5071600;28;20037;-60
2023/06/16 11:55:26;;;;;;;4.13;1.90;;;26.70;89.90;;;;;;5071848;28;20044;-60
2023/06/16 11:57:52;;;;;;;5.32;2.00;;;27.20;88.60;;;;;;5061647;28;20390;-60
2023/06/16 12:00:20;;;;;;;6.20;2.45;;;27.30;87.80;;;;;;5064519;28;20048;-60
2023/06/16 12:02:48;;;;;;;3.58;1.70;;;27.20;85.40;;;;;;5051555;28;20098;-61
2023/06/16 12:05:24;;;;;;;8.57;2.30;;;27.10;85.70;;;;;;5071630;28;20036;-60
2023/06/16 12:07:50;;;;;;;3.70;2.17;;;26.90;86.20;;;;;;5045755;28;20039;-62
2023/06/16 12:10:18;;;;;;;6.38;2.03;;;26.80;87.20;;;;;;5059203;28;20402;-61
2023/06/16 12:12:45;;;;;;;3.63;2.17;;;26.30;86.00;;;;;;5071681;28;20044;-59
2023/06/16 12:15:20;;;;;;;5.63;1.80;;;26.20;87.00;;;;;;5053064;28;20490;-60
2023/06/16 12:17:49;;;;;;;4.43;2.10;;;26.50;86.90;;;;;;5069191;28;20596;-59
2023/06/16 12:20:17;;;;;;;3.47;1.85;;;26.30;88.80;;;;;;5056923;28;20060;-60
2023/06/16 12:22:44;;;;;;;4.70;2.10;;;26.50;88.60;;;;;;5054761;28;20608;-62
2023/06/16 12:25:13;;;;;;;2.10;1.83;;;26.70;88.60;;;;;;5072011;28;20094;-63
2023/06/16 12:27:42;;;;;;;2.58;1.88;;;26.70;89.40;;;;;;5070535;28;20075;-59
2023/06/16 12:30:08;;;;;;;2.42;1.88;;;27.00;90.10;;;;;;5061756;28;20479;-62
2023/06/16 12:32:34;;;;;;;4.20;1.70;;;26.80;89.60;;;;;;5068081;28;20123;-62
2023/06/16 12:35:01;;;;;;;3.85;2.17;;;27.00;90.10;;;;;;5053888;28;20049;-64
2023/06/16 12:37:29;;;;;;;6.60;1.92;;;26.90;88.20;;;;;;5071609;28;20040;-61
2023/06/16 12:39:59;;;;;;;3.08;1.95;;;26.70;89.80;;;;;;5063521;28;20036;-61
2023/06/16 12:42:27;;;;;;;3.08;2.30;;;26.80;88.30;;;;;;5064413;28;20040;-62
2023/06/16 12:44:55;;;;;;;5.10;1.70;;;27.00;88.30;;;;;;5073944;28;20552;-62